createdAt,value
2022-12-01T00:00:00.458Z,9.85
2022-12-01T00:02:46.482Z,10.15
2022-12-01T00:05:32.761Z,9.23
2022-12-01T00:08:19.694Z,9.35
2022-12-01T00:11:11.422Z,9.60
2022-12-01T00:13:57.326Z,9.77
2022-12-01T00:16:44.610Z,9.05
2022-12-01T00:19:30.807Z,9.35
2022-12-01T00:22:16.882Z,9.57
2022-12-01T00:25:02.883Z,11.30
2022-12-01T00:27:50.765Z,9.38
2022-12-01T00:30:36.561Z,9.57
2022-12-01T00:33:22.531Z,9.77
2022-12-01T00:36:08.744Z,8.52
2022-12-01T00:38:56.330Z,8.43
2022-12-01T00:41:42.335Z,7.63
2022-12-01T00:44:29.269Z,8.18
2022-12-01T00:47:16.041Z,8.50
2022-12-01T00:50:02.583Z,7.65
2022-12-01T00:52:48.792Z,8.68
2022-12-01T00:55:34.568Z,8.00
2022-12-01T00:58:21.343Z,7.85
2022-12-01T01:01:07.488Z,8.50
2022-12-01T01:03:53.477Z,7.43
2022-12-01T01:06:39.787Z,7.22
2022-12-01T01:09:28.604Z,7.72
2022-12-01T01:12:14.779Z,7.90
2022-12-01T01:15:00.917Z,7.22
2022-12-01T01:17:46.777Z,7.82
2022-12-01T01:20:32.939Z,6.35
2022-12-01T01:23:19.048Z,7.05
2022-12-01T01:26:07.958Z,7.28
2022-12-01T01:28:57.169Z,6.70
2022-12-01T01:31:43.320Z,7.10
2022-12-01T01:34:29.294Z,7.18
2022-12-01T01:37:15.658Z,7.25
2022-12-01T01:40:01.611Z,6.90
2022-12-01T01:42:47.688Z,7.75
2022-12-01T01:45:34.249Z,7.45
2022-12-01T01:48:20.407Z,7.07
2022-12-01T01:51:06.556Z,7.80
2022-12-01T01:53:55.375Z,7.57
2022-12-01T01:56:43.572Z,7.85
2022-12-01T01:59:38.055Z,6.90
2022-12-01T02:02:25.652Z,6.93
2022-12-01T02:05:23.024Z,6.55
2022-12-01T02:08:12.511Z,7.20
2022-12-01T02:11:19.639Z,7.95
2022-12-01T02:14:59.896Z,7.43
2022-12-01T02:18:11.946Z,6.35
2022-12-01T02:21:13.821Z,7.72
2022-12-01T02:24:31.138Z,16.83
2022-12-01T02:27:24.332Z,11.57
2022-12-01T02:30:17.230Z,11.55
2022-12-01T02:33:09.259Z,9.30
2022-12-01T02:36:13.617Z,8.93
2022-12-01T02:39:07.475Z,9.65
2022-12-01T02:42:01.628Z,9.60
2022-12-01T02:44:47.870Z,10.23
2022-12-01T02:47:34.337Z,10.90
2022-12-01T02:50:22.394Z,10.02
2022-12-01T02:53:08.987Z,10.05
2022-12-01T02:55:57.175Z,9.60
2022-12-01T02:58:43.808Z,9.20
2022-12-01T03:01:59.387Z,9.25
2022-12-01T03:04:59.591Z,8.77
2022-12-01T03:07:51.656Z,8.85
2022-12-01T03:10:48.795Z,9.77
2022-12-01T03:13:57.741Z,8.82
2022-12-01T03:16:50.965Z,9.18
2022-12-01T03:19:50.669Z,8.88
2022-12-01T03:22:42.557Z,8.20
2022-12-01T03:25:30.484Z,8.50
2022-12-01T03:28:21.877Z,8.95
2022-12-01T03:31:11.990Z,9.67
2022-12-01T03:34:01.696Z,8.25
2022-12-01T03:36:55.279Z,8.00
2022-12-01T03:39:42.881Z,8.00
2022-12-01T03:42:46.033Z,7.40
2022-12-01T03:46:00.897Z,7.00
2022-12-01T03:48:46.670Z,6.63
2022-12-01T03:51:36.538Z,7.43
2022-12-01T03:54:29.259Z,6.82
2022-12-01T03:57:18.974Z,7.28
2022-12-01T04:00:06.999Z,6.88
2022-12-01T04:02:59.800Z,6.22
2022-12-01T04:05:45.732Z,6.88
2022-12-01T04:08:33.770Z,6.20
2022-12-01T04:11:38.177Z,7.53
2022-12-01T04:14:24.137Z,6.90
2022-12-01T04:17:10.536Z,6.82
2022-12-01T04:19:56.497Z,6.22
2022-12-01T04:22:42.768Z,6.07
2022-12-01T04:25:28.852Z,8.25
2022-12-01T04:28:14.954Z,7.63
2022-12-01T04:31:00.875Z,7.80
2022-12-01T04:33:46.579Z,6.78
2022-12-01T04:36:34.234Z,6.65
2022-12-01T04:39:20.570Z,6.22
2022-12-01T04:42:06.400Z,5.40
2022-12-01T04:44:52.355Z,4.97
2022-12-01T04:47:38.106Z,5.90
2022-12-01T04:50:24.013Z,6.35
2022-12-01T04:53:10.079Z,10.95
2022-12-01T04:55:55.963Z,12.80
2022-12-01T04:58:41.804Z,19.70
2022-12-01T05:01:27.992Z,22.42
2022-12-01T05:04:14.755Z,20.05
2022-12-01T05:07:00.904Z,17.92
2022-12-01T05:09:47.025Z,14.57
2022-12-01T05:12:33.107Z,10.55
2022-12-01T05:15:19.336Z,9.45
2022-12-01T05:18:07.223Z,8.60
2022-12-01T05:20:59.342Z,7.78
2022-12-01T05:23:45.774Z,6.60
2022-12-01T05:26:31.855Z,6.28
2022-12-01T05:29:18.118Z,7.45
2022-12-01T05:32:04.859Z,6.85
2022-12-01T05:34:50.694Z,6.70
2022-12-01T05:37:36.485Z,7.65
2022-12-01T05:40:22.553Z,8.63
2022-12-01T05:43:08.492Z,9.32
2022-12-01T05:45:55.410Z,8.88
2022-12-01T05:48:42.307Z,9.90
2022-12-01T05:51:28.593Z,9.02
2022-12-01T05:54:14.468Z,10.00
2022-12-01T05:57:00.537Z,9.77
2022-12-01T05:59:46.421Z,10.68
2022-12-01T06:02:32.747Z,10.23
2022-12-01T06:05:19.016Z,11.00
2022-12-01T06:08:04.886Z,11.57
2022-12-01T06:10:50.833Z,12.68
2022-12-01T06:13:36.842Z,14.75
2022-12-01T06:16:22.792Z,10.93
2022-12-01T06:19:08.552Z,11.00
2022-12-01T06:21:54.460Z,11.45
2022-12-01T06:24:40.384Z,12.27
2022-12-01T06:27:26.441Z,11.95
2022-12-01T06:30:12.602Z,14.95
2022-12-01T06:32:58.330Z,16.85
2022-12-01T06:35:44.354Z,14.77
2022-12-01T06:38:32.130Z,13.82
2022-12-01T06:41:18.108Z,14.02
2022-12-01T06:44:04.668Z,15.65
2022-12-01T06:46:53.029Z,15.23
2022-12-01T06:49:39.108Z,13.45
2022-12-01T06:52:25.014Z,12.70
2022-12-01T06:55:10.823Z,13.82
2022-12-01T06:58:00.107Z,16.13
2022-12-01T07:00:52.062Z,14.45
2022-12-01T07:03:39.608Z,13.30
2022-12-01T07:06:25.476Z,12.75
2022-12-01T07:09:11.394Z,12.45
2022-12-01T07:11:57.344Z,12.10
2022-12-01T07:14:43.267Z,12.15
2022-12-01T07:17:30.159Z,11.93
2022-12-01T07:20:16.387Z,9.07
2022-12-01T07:23:02.484Z,8.13
2022-12-01T07:25:48.369Z,8.52
2022-12-01T07:28:34.520Z,10.55
2022-12-01T07:31:20.758Z,13.82
2022-12-01T07:34:06.829Z,14.43
2022-12-01T07:36:52.779Z,16.00
2022-12-01T07:39:38.966Z,16.73
2022-12-01T07:42:25.370Z,14.13
2022-12-01T07:45:11.336Z,11.35
2022-12-01T07:47:57.360Z,8.25
2022-12-01T07:50:43.328Z,8.60
2022-12-01T07:53:29.260Z,8.40
2022-12-01T07:56:16.207Z,6.93
2022-12-01T07:59:01.996Z,7.30
2022-12-01T08:01:47.948Z,7.13
2022-12-01T08:04:36.284Z,7.10
2022-12-01T08:07:26.007Z,6.72
2022-12-01T08:10:14.725Z,5.13
2022-12-01T08:13:00.728Z,3.67
2022-12-01T08:15:46.962Z,3.80
2022-12-01T08:18:37.808Z,5.38
2022-12-01T08:21:24.833Z,4.43
2022-12-01T08:24:11.271Z,4.63
2022-12-01T08:26:57.356Z,4.82
2022-12-01T08:29:43.237Z,5.13
2022-12-01T08:32:29.798Z,4.10
2022-12-01T08:35:15.948Z,3.17
2022-12-01T08:38:01.751Z,3.95
2022-12-01T08:40:47.817Z,4.25
2022-12-01T08:43:56.470Z,3.45
2022-12-01T08:46:39.635Z,3.40
2022-12-01T08:49:26.593Z,3.50
2022-12-01T08:52:12.605Z,3.38
2022-12-01T08:54:58.552Z,3.88
2022-12-01T08:57:44.452Z,3.85
2022-12-01T09:00:30.435Z,4.40
2022-12-01T09:03:16.350Z,4.25
2022-12-01T09:06:06.644Z,4.38
2022-12-01T09:08:52.731Z,3.17
2022-12-01T09:11:39.024Z,2.72
2022-12-01T09:14:25.321Z,2.90
2022-12-01T09:17:11.260Z,3.35
2022-12-01T09:19:57.091Z,3.75
2022-12-01T09:22:43.076Z,3.65
2022-12-01T09:25:30.941Z,2.70
2022-12-01T09:28:18.150Z,3.65
2022-12-01T09:31:09.424Z,4.47
2022-12-01T09:33:56.604Z,4.00
2022-12-01T09:36:42.464Z,4.65
2022-12-01T09:39:28.489Z,3.10
2022-12-01T09:42:16.658Z,2.80
2022-12-01T09:45:04.571Z,3.10
2022-12-01T09:47:50.802Z,3.03
2022-12-01T09:50:37.461Z,3.10
2022-12-01T09:53:26.764Z,3.08
2022-12-01T09:56:20.840Z,2.88
2022-12-01T09:59:08.219Z,2.45
2022-12-01T10:01:59.455Z,3.10
2022-12-01T10:04:46.802Z,2.55
2022-12-01T10:08:02.999Z,3.28
2022-12-01T10:10:51.657Z,4.78
2022-12-01T10:13:37.587Z,5.30
2022-12-01T10:16:37.685Z,4.65
2022-12-01T10:19:32.990Z,3.80
2022-12-01T10:22:56.702Z,4.43
2022-12-01T10:26:20.800Z,3.75
2022-12-01T10:29:38.925Z,5.22
2022-12-01T10:32:52.621Z,5.65
2022-12-01T10:35:40.268Z,6.75
2022-12-01T10:38:33.020Z,6.45
2022-12-01T10:41:20.611Z,6.47
2022-12-01T10:44:07.506Z,4.07
2022-12-01T10:46:55.808Z,3.67
2022-12-01T10:49:42.042Z,3.53
2022-12-01T10:52:41.618Z,2.50
2022-12-01T10:55:30.970Z,3.03
2022-12-01T10:58:18.963Z,2.20
2022-12-01T11:01:06.072Z,2.30
2022-12-01T11:03:57.806Z,3.15
2022-12-01T11:06:50.200Z,3.23
2022-12-01T11:09:36.319Z,3.03
2022-12-01T11:12:23.570Z,2.90
2022-12-01T11:15:22.197Z,2.47
2022-12-01T11:18:38.740Z,1.60
2022-12-01T11:21:28.375Z,1.90
2022-12-01T11:24:44.461Z,1.50
2022-12-01T11:27:34.451Z,1.00
2022-12-01T11:30:29.369Z,1.30
2022-12-01T11:33:15.891Z,2.25
2022-12-01T11:36:01.941Z,3.08
2022-12-01T11:38:48.002Z,2.28
2022-12-01T11:41:40.110Z,3.38
2022-12-01T11:44:50.346Z,4.28
2022-12-01T11:47:33.066Z,3.35
2022-12-01T11:50:28.599Z,3.47
2022-12-01T11:53:31.220Z,2.80
2022-12-01T11:56:28.758Z,4.20
2022-12-01T11:59:18.122Z,3.38
2022-12-01T12:02:04.454Z,6.07
2022-12-01T12:05:06.922Z,4.07
2022-12-01T12:08:05.823Z,3.53
2022-12-01T12:11:01.414Z,3.47
2022-12-01T12:14:12.349Z,3.80
2022-12-01T12:16:58.194Z,2.20
2022-12-01T12:23:29.357Z,1.80
2022-12-01T12:26:24.964Z,2.50
2022-12-01T12:29:33.727Z,3.50
2022-12-01T12:32:36.014Z,2.75
2022-12-01T12:35:45.925Z,2.90
2022-12-01T12:39:00.884Z,2.15
2022-12-01T12:41:52.411Z,2.03
2022-12-01T12:44:51.852Z,2.90
2022-12-01T12:47:45.758Z,2.33
2022-12-01T12:50:39.295Z,2.83
2022-12-01T12:53:29.145Z,2.55
2022-12-01T12:56:17.983Z,2.22
2022-12-01T12:59:10.363Z,2.47
2022-12-01T13:02:17.278Z,2.80
2022-12-01T13:05:10.839Z,2.25
2022-12-01T13:08:05.308Z,1.52
2022-12-01T13:11:04.257Z,1.73
2022-12-01T13:13:57.798Z,1.63
2022-12-01T13:16:47.804Z,1.70
2022-12-01T13:19:36.732Z,2.00
2022-12-01T13:22:35.635Z,1.40
2022-12-01T13:25:32.990Z,1.30
2022-12-01T13:28:23.467Z,1.38
2022-12-01T13:31:15.316Z,1.40
2022-12-01T13:34:03.957Z,1.50
2022-12-01T13:36:54.989Z,2.03
2022-12-01T13:39:42.301Z,2.03
2022-12-01T13:42:30.379Z,2.70
2022-12-01T13:45:19.636Z,1.85
2022-12-01T13:48:27.039Z,2.10
2022-12-01T13:51:13.417Z,2.75
2022-12-01T13:54:29.033Z,3.28
2022-12-01T13:57:27.104Z,2.25
2022-12-01T14:00:29.844Z,2.90
2022-12-01T14:03:15.722Z,3.28
2022-12-01T14:06:10.415Z,3.03
2022-12-01T14:09:02.536Z,2.17
2022-12-01T14:12:00.370Z,1.87
2022-12-01T14:14:56.126Z,2.40
2022-12-01T14:17:42.358Z,4.07
2022-12-01T14:20:32.433Z,4.15
2022-12-01T14:23:30.707Z,3.03
2022-12-01T14:26:19.431Z,2.00
2022-12-01T14:29:05.263Z,2.28
2022-12-01T14:31:51.155Z,3.97
2022-12-01T14:34:37.752Z,5.18
2022-12-01T14:37:26.439Z,7.30
2022-12-01T14:40:22.499Z,5.80
2022-12-01T14:43:31.327Z,3.30
2022-12-01T14:46:23.370Z,6.47
2022-12-01T14:49:16.455Z,4.22
2022-12-01T14:52:05.794Z,2.88
2022-12-01T14:54:52.964Z,3.83
2022-12-01T14:57:45.484Z,12.57
2022-12-01T15:00:32.911Z,12.07
2022-12-01T15:03:19.094Z,19.45
2022-12-01T15:06:05.711Z,11.13
2022-12-01T15:12:26.701Z,10.50
2022-12-01T15:18:22.184Z,8.27
2022-12-01T15:21:19.716Z,7.38
2022-12-01T15:24:21.873Z,8.25
2022-12-01T15:27:25.178Z,42.85
2022-12-01T15:30:18.813Z,23.52
2022-12-01T15:33:06.765Z,15.75
2022-12-01T15:35:53.662Z,11.57
2022-12-01T15:38:41.675Z,9.32
2022-12-01T15:41:29.770Z,7.57
2022-12-01T15:45:00.125Z,8.55
2022-12-01T15:47:48.823Z,10.27
2022-12-01T15:50:42.733Z,7.38
2022-12-01T15:53:34.623Z,11.43
2022-12-01T15:56:36.926Z,9.10
2022-12-01T15:59:26.175Z,8.93
2022-12-01T16:02:24.522Z,8.95
2022-12-01T16:05:13.765Z,9.60
2022-12-01T16:08:14.711Z,10.95
2022-12-01T16:11:14.234Z,29.52
2022-12-01T16:14:01.577Z,18.45
2022-12-01T16:16:49.353Z,15.93
2022-12-01T16:19:36.454Z,13.48
2022-12-01T16:22:22.635Z,11.43
2022-12-01T16:25:17.172Z,12.13
2022-12-01T16:28:04.636Z,12.63
2022-12-01T16:30:52.355Z,11.73
2022-12-01T16:33:38.813Z,9.68
2022-12-01T16:36:26.910Z,8.88
2022-12-01T16:39:14.709Z,9.88
2022-12-01T16:42:01.034Z,24.60
2022-12-01T16:44:48.363Z,25.65
2022-12-01T16:47:34.366Z,23.88
2022-12-01T16:50:22.212Z,17.98
2022-12-01T16:53:09.021Z,13.15
2022-12-01T16:55:56.966Z,11.70
2022-12-01T16:58:44.835Z,10.13
2022-12-01T17:01:31.229Z,9.73
2022-12-01T17:04:18.045Z,11.27
2022-12-01T17:07:04.647Z,10.38
2022-12-01T17:09:50.615Z,10.70
2022-12-01T17:12:36.604Z,10.18
2022-12-01T17:15:22.438Z,9.60
2022-12-01T17:18:08.836Z,8.60
2022-12-01T17:21:08.993Z,7.90
2022-12-01T17:23:55.070Z,7.28
2022-12-01T17:26:40.946Z,6.60
2022-12-01T17:29:27.113Z,6.68
2022-12-01T17:32:13.818Z,5.88
2022-12-01T17:35:00.747Z,6.95
2022-12-01T17:37:46.646Z,6.72
2022-12-01T17:40:32.789Z,5.97
2022-12-01T17:43:20.963Z,6.00
2022-12-01T17:46:08.711Z,6.35
2022-12-01T17:48:54.741Z,6.15
2022-12-01T17:51:41.715Z,5.90
2022-12-01T17:54:27.677Z,7.57
2022-12-01T17:57:13.694Z,6.63
2022-12-01T18:00:01.533Z,6.93
2022-12-01T18:02:54.432Z,6.53
2022-12-01T18:05:40.179Z,7.57
2022-12-01T18:08:27.519Z,6.60
2022-12-01T18:11:16.101Z,8.57
2022-12-01T18:14:01.968Z,8.45
2022-12-01T18:16:47.940Z,8.52
2022-12-01T18:19:34.097Z,8.88
2022-12-01T18:22:20.327Z,8.52
2022-12-01T18:25:06.653Z,7.07
2022-12-01T18:27:58.842Z,7.70
2022-12-01T18:30:45.138Z,7.18
2022-12-01T18:33:35.970Z,10.80
2022-12-01T18:36:23.591Z,10.05
2022-12-01T18:39:11.317Z,9.93
2022-12-01T18:41:57.867Z,6.15
2022-12-01T18:44:43.943Z,6.40
2022-12-01T18:47:30.311Z,5.00
2022-12-01T18:50:16.351Z,7.68
2022-12-01T18:53:02.689Z,6.32
2022-12-01T18:55:49.084Z,6.07
2022-12-01T18:58:35.898Z,7.30
2022-12-01T19:01:25.058Z,6.78
2022-12-01T19:04:11.529Z,7.47
2022-12-01T19:06:57.573Z,8.45
2022-12-01T19:09:43.595Z,7.97
2022-12-01T19:12:29.584Z,8.30
2022-12-01T19:15:15.520Z,8.98
2022-12-01T19:18:02.256Z,12.45
2022-12-01T19:20:48.567Z,8.57
2022-12-01T19:23:35.871Z,9.10
2022-12-01T19:26:23.692Z,10.77
2022-12-01T19:29:09.812Z,13.48
2022-12-01T19:31:55.664Z,19.55
2022-12-01T19:34:41.480Z,14.50
2022-12-01T19:37:27.576Z,13.40
2022-12-01T19:40:14.187Z,9.82
2022-12-01T19:43:00.375Z,8.77
2022-12-01T19:45:48.942Z,8.68
2022-12-01T19:48:34.962Z,6.93
2022-12-01T19:51:30.831Z,7.85
2022-12-01T19:54:19.650Z,9.23
2022-12-01T19:57:06.489Z,7.25
2022-12-01T19:59:52.617Z,7.63
2022-12-01T20:02:38.502Z,7.50
2022-12-01T20:05:24.567Z,9.57
2022-12-01T20:08:13.911Z,8.90
2022-12-01T20:11:04.302Z,11.30
2022-12-01T20:13:51.553Z,9.63
2022-12-01T20:16:37.557Z,10.65
2022-12-01T20:19:23.633Z,10.95
2022-12-01T20:22:09.829Z,12.10
2022-12-01T20:24:56.025Z,13.15
2022-12-01T20:27:42.569Z,12.32
2022-12-01T20:30:29.450Z,14.07
2022-12-01T20:33:16.752Z,12.13
2022-12-01T20:36:03.660Z,11.93
2022-12-01T20:38:49.790Z,13.65
2022-12-01T20:41:36.134Z,10.65
2022-12-01T20:44:22.394Z,10.38
2022-12-01T20:47:08.205Z,9.98
2022-12-01T20:49:58.187Z,10.05
2022-12-01T20:52:44.825Z,10.23
2022-12-01T20:55:31.031Z,10.35
2022-12-01T20:58:17.381Z,11.05
2022-12-01T21:01:11.459Z,11.65
2022-12-01T21:03:57.862Z,14.10
2022-12-01T21:06:44.214Z,12.20
2022-12-01T21:09:30.339Z,12.35
2022-12-01T21:12:49.475Z,8.80
2022-12-01T21:15:49.026Z,7.55
2022-12-01T21:18:47.985Z,7.97
2022-12-01T21:21:41.214Z,8.10
2022-12-01T21:24:34.093Z,7.05
2022-12-01T21:27:21.768Z,6.03
2022-12-01T21:30:16.163Z,6.70
2022-12-01T21:33:20.860Z,8.25
2022-12-01T21:36:19.198Z,6.82
2022-12-01T21:39:13.434Z,6.05
2022-12-01T21:42:12.544Z,6.22
2022-12-01T21:44:58.435Z,7.20
2022-12-01T21:47:44.613Z,7.25
2022-12-01T21:50:31.397Z,6.30
2022-12-01T21:53:19.328Z,6.82
2022-12-01T21:56:05.373Z,6.15
2022-12-01T21:58:52.595Z,6.07
2022-12-01T22:01:40.484Z,5.28
2022-12-01T22:04:30.208Z,5.65
2022-12-01T22:07:16.482Z,6.35
2022-12-01T22:10:29.165Z,5.60
2022-12-01T22:13:15.461Z,5.50
2022-12-01T22:16:01.395Z,5.97
2022-12-01T22:18:52.963Z,6.30
2022-12-01T22:21:49.685Z,6.68
2022-12-01T22:24:39.190Z,8.52
2022-12-01T22:27:36.781Z,6.30
2022-12-01T22:30:24.270Z,6.47
2022-12-01T22:33:29.110Z,7.63
2022-12-01T22:36:22.876Z,15.95
2022-12-01T22:39:26.340Z,7.90
2022-12-01T22:42:20.884Z,10.45
2022-12-01T22:45:24.026Z,6.10
2022-12-01T22:51:14.141Z,7.18
2022-12-01T22:54:06.699Z,6.15
2022-12-01T22:59:43.257Z,8.25
2022-12-01T23:02:34.559Z,7.43
2022-12-01T23:05:26.280Z,8.43
2022-12-01T23:08:17.412Z,9.20
2022-12-01T23:11:06.878Z,7.63
2022-12-01T23:13:55.165Z,7.03
2022-12-01T23:16:41.098Z,6.15
2022-12-01T23:19:27.005Z,6.40
2022-12-01T23:22:15.331Z,5.90
2022-12-01T23:25:02.599Z,6.93
2022-12-01T23:27:50.524Z,6.70
2022-12-01T23:30:37.641Z,7.15
2022-12-01T23:33:25.746Z,6.20
2022-12-01T23:36:23.544Z,6.43
2022-12-01T23:39:14.857Z,6.68
2022-12-01T23:42:02.855Z,6.50
2022-12-01T23:44:49.812Z,6.72
2022-12-01T23:47:35.842Z,7.70
2022-12-01T23:50:26.388Z,6.55
2022-12-01T23:53:31.635Z,6.55
2022-12-01T23:56:21.100Z,7.57
2022-12-01T23:59:12.723Z,8.50
